Time;durP1;ratioP1;P1;durP2;ratioP2;P2;SDS_P1;SDS_P2;PMS_P1;PMS_P2;Temp;Humidity;BMP_temperature;BMP_pressure;BME280_temperature;BME280_humidity;BME280_pressure;Samples;Min_cycle;Max_cycle;Signal;HPM_P1;HPM_P2
2023/07/29 00:02:14;;;;;;;1.83;1.13;;;;;;;32.94;19.21;100875.91;4952227;28;20110;-78
2023/07/29 00:04:43;;;;;;;2.38;1.10;;;;;;;32.93;20.05;100880.41;4947216;28;20055;-75
2023/07/29 00:07:11;;;;;;;3.05;1.00;;;;;;;32.98;20.97;100882.78;4946955;28;20415;-75
2023/07/29 00:09:40;;;;;;;2.97;1.38;;;;;;;33.03;21.35;100880.69;4945822;28;20051;-76
2023/07/29 00:12:09;;;;;;;2.13;1.27;;;;;;;33.05;21.85;100876.13;4944181;28;20047;-75
2023/07/29 00:14:37;;;;;;;2.40;1.75;;;;;;;33.06;21.50;100880.53;4949120;28;20126;-76
2023/07/29 00:17:08;;;;;;;3.47;1.40;;;;;;;33.03;21.89;100875.31;4946208;28;20054;-79
2023/07/29 00:19:36;;;;;;;3.33;1.20;;;;;;;33.05;21.77;100873.44;4950300;28;20047;-77
2023/07/29 00:22:06;;;;;;;2.88;1.25;;;;;;;33.07;21.88;100870.66;4943879;28;20051;-75
2023/07/29 00:24:34;;;;;;;3.58;1.30;;;;;;;33.07;22.68;100876.88;4944443;28;20043;-78
2023/07/29 00:27:02;;;;;;;3.63;1.30;;;;;;;33.04;22.89;100871.69;4944097;28;20043;-75
2023/07/29 00:29:31;;;;;;;1.50;1.10;;;;;;;32.91;22.58;100865.38;4943446;28;20043;-77
2023/07/29 00:32:00;;;;;;;2.80;1.25;;;;;;;32.81;22.71;100864.25;4946245;28;20486;-78
2023/07/29 00:34:30;;;;;;;1.40;0.98;;;;;;;32.80;23.47;100865.19;4944127;28;20548;-77
2023/07/29 00:36:59;;;;;;;1.77;1.10;;;;;;;32.80;23.56;100859.81;4935013;28;20557;-76
2023/07/29 00:39:28;;;;;;;2.33;0.93;;;;;;;32.74;23.99;100859.25;4946777;28;20156;-76
2023/07/29 00:41:56;;;;;;;2.45;1.00;;;;;;;32.66;23.90;100861.53;4946342;28;20110;-76
2023/07/29 00:44:25;;;;;;;2.67;1.10;;;;;;;32.63;23.37;100859.06;4946830;28;20879;-77
2023/07/29 00:46:54;;;;;;;4.53;1.48;;;;;;;32.61;23.62;100858.28;4947660;28;20058;-78
2023/07/29 00:49:23;;;;;;;2.67;1.15;;;;;;;32.61;24.22;100858.28;4948480;28;20521;-76
2023/07/29 00:51:56;;;;;;;2.20;1.08;;;;;;;32.56;24.10;100857.72;4945866;28;20039;-75
2023/07/29 00:54:25;;;;;;;3.92;0.82;;;;;;;32.40;23.87;100857.75;4950283;28;20051;-76
2023/07/29 00:56:54;;;;;;;2.83;0.95;;;;;;;32.26;23.90;100853.22;4952841;28;20047;-77
2023/07/29 00:59:23;;;;;;;2.55;1.30;;;;;;;32.04;24.79;100852.78;4947438;28;20070;-75
2023/07/29 01:01:51;;;;;;;2.05;1.20;;;;;;;31.84;24.55;100846.75;4941693;28;20051;-76
2023/07/29 01:04:20;;;;;;;2.55;1.13;;;;;;;31.69;25.25;100853.84;4944911;28;20121;-77
2023/07/29 01:06:57;;;;;;;3.53;1.05;;;;;;;31.67;25.32;100860.22;4948343;28;20047;-78
2023/07/29 01:09:34;;;;;;;1.55;1.00;;;;;;;31.64;24.87;100857.75;4949914;28;20765;-78
2023/07/29 01:12:10;;;;;;;5.75;1.02;;;;;;;31.45;25.39;100861.47;4941821;28;20078;-77
2023/07/29 01:14:48;;;;;;;3.83;1.45;;;;;;;31.32;25.41;100865.72;4944179;28;20051;-80
2023/07/29 01:17:23;;;;;;;2.05;1.10;;;;;;;31.19;25.74;100857.50;4939625;28;20687;-76
2023/07/29 01:20:05;;;;;;;2.00;1.00;;;;;;;31.02;26.18;100853.09;4946927;28;20154;-77
2023/07/29 01:22:37;;;;;;;4.85;1.15;;;;;;;30.90;26.45;100853.75;4940935;28;20048;-77
2023/07/29 01:25:06;;;;;;;;;;;;;;;30.76;26.14;100854.47;4944981;28;20527;-75
2023/07/29 01:27:35;;;;;;;2.42;1.20;;;;;;;30.71;26.08;100850.31;4944119;28;19926;-77
2023/07/29 01:30:04;;;;;;;2.65;1.13;;;;;;;30.67;26.70;100846.94;4947264;28;20699;-76
2023/07/29 01:32:41;;;;;;;1.85;1.00;;;;;;;30.66;26.54;100845.22;4946801;28;20051;-77
2023/07/29 01:35:19;;;;;;;3.83;1.00;;;;;;;30.61;27.18;100842.81;4947283;28;20516;-77
2023/07/29 01:37:53;;;;;;;1.52;0.93;;;;;;;30.63;27.64;100850.75;4947849;28;20051;-76
2023/07/29 01:40:25;;;;;;;10.32;1.55;;;;;;;30.64;27.28;100850.63;4947074;28;20051;-77
2023/07/29 01:42:53;;;;;;;;;;;;;;;30.68;27.25;100852.22;4951287;28;20138;-80
2023/07/29 01:45:24;;;;;;;1.85;1.20;;;;;;;30.75;26.95;100847.41;4950049;28;19929;-79
2023/07/29 01:47:53;;;;;;;2.20;1.15;;;;;;;30.81;27.30;100851.53;4948319;28;20062;-81
2023/07/29 01:50:24;;;;;;;2.17;1.10;;;;;;;30.76;27.77;100857.13;4945157;28;20055;-79
2023/07/29 01:52:53;;;;;;;2.00;1.20;;;;;;;30.61;27.47;100857.97;4948553;28;20122;-78
2023/07/29 01:55:24;;;;;;;2.47;1.27;;;;;;;30.42;27.62;100855.38;4940732;28;20054;-77
2023/07/29 01:57:52;;;;;;;2.30;1.58;;;;;;;30.25;28.12;100859.75;4947504;28;20048;-75
2023/07/29 02:00:23;;;;;;;3.72;1.50;;;;;;;30.06;28.96;100858.97;4945073;28;20122;-77
2023/07/29 02:02:52;;;;;;;2.55;1.25;;;;;;;29.90;28.94;100864.22;4945625;28;21289;-77
2023/07/29 02:05:21;;;;;;;3.50;1.35;;;;;;;29.75;29.51;100863.16;4946723;28;20051;-77
2023/07/29 02:07:49;;;;;;;3.25;1.00;;;;;;;29.63;30.70;100869.06;4946334;28;20604;-77
2023/07/29 02:10:18;;;;;;;1.63;1.23;;;;;;;29.49;31.54;100866.19;4944850;28;20520;-76
2023/07/29 02:12:52;;;;;;;3.17;1.30;;;;;;;29.34;31.93;100868.63;4950665;28;20086;-79
2023/07/29 02:15:23;;;;;;;1.85;1.20;;;;;;;29.20;32.24;100871.09;4945694;28;20142;-78
2023/07/29 02:17:53;;;;;;;1.30;1.13;;;;;;;29.08;32.73;100869.00;4958046;28;20518;-77
2023/07/29 02:20:21;;;;;;;3.03;1.35;;;;;;;28.97;32.67;100869.44;4948753;28;20522;-78
2023/07/29 02:22:50;;;;;;;3.78;1.30;;;;;;;28.82;32.04;100873.69;4944019;28;20051;-78
2023/07/29 02:25:19;;;;;;;4.18;1.20;;;;;;;28.66;32.11;100862.00;4945857;28;20720;-78
2023/07/29 02:27:49;;;;;;;4.78;1.20;;;;;;;28.57;32.55;100866.78;4951362;28;20047;-79
2023/07/29 02:30:18;;;;;;;1.33;1.05;;;;;;;28.53;32.49;100881.13;4953368;28;20063;-77
2023/07/29 02:32:46;;;;;;;2.50;1.30;;;;;;;28.49;32.62;100874.22;4945638;28;20052;-78
2023/07/29 02:35:18;;;;;;;3.55;1.13;;;;;;;28.39;32.67;100872.84;4948636;28;20043;-78
2023/07/29 02:37:47;;;;;;;2.22;1.23;;;;;;;28.32;33.55;100879.38;4948486;28;20111;-78
2023/07/29 02:40:15;;;;;;;2.05;1.25;;;;;;;28.24;34.10;100874.38;4947228;28;20140;-79
2023/07/29 02:42:44;;;;;;;3.22;1.25;;;;;;;28.09;33.05;100881.22;4947929;28;20059;-77
2023/07/29 02:45:14;;;;;;;2.38;0.90;;;;;;;27.98;34.60;100883.44;4943405;28;20063;-78
2023/07/29 02:47:43;;;;;;;1.83;1.02;;;;;;;27.86;34.01;100873.31;4945487;28;20051;-77
2023/07/29 02:50:12;;;;;;;2.67;1.00;;;;;;;27.75;34.23;100866.59;4953954;28;20653;-78
2023/07/29 02:52:40;;;;;;;1.50;1.10;;;;;;;27.78;35.23;100882.41;4951204;28;20070;-78
2023/07/29 02:55:09;;;;;;;2.33;1.10;;;;;;;27.73;34.39;100880.88;4948760;28;20055;-78
2023/07/29 02:57:41;;;;;;;2.25;1.30;;;;;;;27.63;36.00;100899.00;4949500;28;20055;-79
2023/07/29 03:00:11;;;;;;;2.92;1.10;;;;;;;27.50;35.38;100897.72;4949887;28;20100;-78
2023/07/29 03:02:41;;;;;;;3.33;1.27;;;;;;;27.44;34.71;100893.53;4950373;28;20055;-80
2023/07/29 03:05:12;;;;;;;2.53;1.10;;;;;;;27.38;35.12;100892.91;4948811;28;20107;-78
2023/07/29 03:07:45;;;;;;;2.03;1.50;;;;;;;27.35;35.14;100902.72;4949395;28;20043;-79
2023/07/29 03:10:14;;;;;;;3.17;1.27;;;;;;;27.36;36.74;100901.78;4949863;28;20674;-80
2023/07/29 03:12:43;;;;;;;2.25;1.15;;;;;;;27.34;36.82;100903.63;4947408;28;20126;-78
2023/07/29 03:15:12;;;;;;;2.95;1.30;;;;;;;27.31;36.97;100902.91;4945739;28;20054;-78
2023/07/29 03:17:42;;;;;;;2.80;1.20;;;;;;;27.30;35.59;100909.97;4950734;28;20055;-78
2023/07/29 03:20:12;;;;;;;1.90;1.30;;;;;;;27.29;36.82;100907.41;4949008;28;20047;-79
2023/07/29 03:22:40;;;;;;;3.85;1.30;;;;;;;27.26;37.02;100911.03;4947236;28;20040;-78
2023/07/29 03:25:09;;;;;;;3.25;1.10;;;;;;;27.24;36.74;100918.19;4952936;28;20051;-79
2023/07/29 03:27:39;;;;;;;1.48;1.17;;;;;;;27.21;37.11;100917.44;4951808;28;20054;-80
2023/07/29 03:30:08;;;;;;;2.08;1.20;;;;;;;27.19;36.13;100922.78;4950536;28;20079;-79
2023/07/29 03:32:37;;;;;;;3.20;1.27;;;;;;;27.16;37.73;100928.19;4953792;28;20043;-78
2023/07/29 03:35:08;;;;;;;2.33;1.30;;;;;;;27.11;37.44;100932.81;4950844;28;20504;-79
2023/07/29 03:37:37;;;;;;;4.07;1.25;;;;;;;27.08;37.06;100932.94;4948124;28;20051;-76
2023/07/29 03:40:06;;;;;;;3.08;1.30;;;;;;;27.03;37.02;100943.72;4945016;28;20052;-77
2023/07/29 03:42:36;;;;;;;3.78;1.48;;;;;;;26.98;36.74;100947.44;4951794;28;20053;-79
2023/07/29 03:45:04;;;;;;;5.60;1.40;;;;;;;26.91;36.81;100947.66;4949497;28;20051;-77
2023/07/29 03:47:33;;;;;;;2.60;1.10;;;;;;;26.81;37.49;100951.56;4945776;28;20051;-79
2023/07/29 03:50:02;;;;;;;2.95;1.60;;;;;;;26.72;37.20;100952.75;4947781;28;20063;-78
2023/07/29 03:52:34;;;;;;;4.47;1.70;;;;;;;26.69;37.05;100959.97;4944655;28;20054;-78
2023/07/29 03:55:03;;;;;;;3.28;1.40;;;;;;;26.61;37.45;100964.66;4936875;28;20513;-78
2023/07/29 03:57:31;;;;;;;2.60;1.20;;;;;;;26.52;37.22;100971.09;4941710;28;20133;-76
2023/07/29 04:00:00;;;;;;;1.60;1.17;;;;;;;26.44;37.12;100967.84;4948362;28;20106;-79
2023/07/29 04:02:28;;;;;;;5.22;1.40;;;;;;;26.38;37.38;100979.53;4944571;28;20051;-77
2023/07/29 04:04:57;;;;;;;4.10;1.35;;;;;;;26.29;37.72;100978.03;4942931;28;20051;-78
2023/07/29 04:07:26;;;;;;;3.45;1.30;;;;;;;26.21;37.58;100987.19;4945486;28;20102;-79
2023/07/29 04:09:56;;;;;;;2.70;1.20;;;;;;;26.08;37.35;100982.25;4944417;28;20960;-78
2023/07/29 04:12:25;;;;;;;4.90;1.65;;;;;;;25.99;38.24;100993.13;4945576;28;20138;-77
2023/07/29 04:14:54;;;;;;;3.55;1.60;;;;;;;25.89;38.44;100986.41;4948193;28;20062;-78
2023/07/29 04:17:22;;;;;;;5.70;1.52;;;;;;;25.76;39.70;100988.50;4941415;28;20327;-77
2023/07/29 04:19:51;;;;;;;4.40;1.88;;;;;;;25.71;39.32;100991.28;4942522;28;20054;-77
2023/07/29 04:22:20;;;;;;;3.65;1.70;;;;;;;25.63;39.85;100995.97;4936229;28;20050;-78
2023/07/29 04:24:48;;;;;;;2.70;1.58;;;;;;;25.53;39.89;101005.06;4948585;28;20056;-78
2023/07/29 04:27:19;;;;;;;3.83;1.55;;;;;;;25.39;39.91;100997.53;4943602;28;20054;-78
2023/07/29 04:29:47;;;;;;;2.80;1.30;;;;;;;25.31;40.60;101004.81;4938232;28;20055;-78
2023/07/29 04:32:16;;;;;;;3.17;1.38;;;;;;;25.25;39.63;101003.22;4932025;28;20151;-76
2023/07/29 04:34:44;;;;;;;3.83;1.40;;;;;;;25.18;40.32;101004.28;4942312;28;20066;-76
2023/07/29 04:37:13;;;;;;;7.45;1.55;;;;;;;25.11;40.02;101005.34;4941561;28;20414;-76
2023/07/29 04:39:42;;;;;;;3.13;1.30;;;;;;;25.02;40.15;101003.78;4941124;28;20050;-78
2023/07/29 04:42:10;;;;;;;2.50;1.25;;;;;;;24.92;39.92;101007.56;4942087;28;20159;-77
2023/07/29 04:44:41;;;;;;;7.20;1.73;;;;;;;24.82;40.26;101006.94;4955687;28;20061;-78
2023/07/29 04:47:10;;;;;;;2.83;1.27;;;;;;;24.74;40.66;101008.94;4942533;28;20051;-76
2023/07/29 04:49:39;;;;;;;2.92;1.40;;;;;;;24.65;40.72;101009.19;4942820;28;20044;-77
2023/07/29 04:52:08;;;;;;;4.05;1.40;;;;;;;24.54;41.03;101012.06;4940673;28;20655;-79
2023/07/29 04:54:37;;;;;;;2.45;1.10;;;;;;;24.48;40.78;101014.00;4946993;28;20552;-78
2023/07/29 04:57:06;;;;;;;4.15;1.20;;;;;;;24.41;41.16;101016.75;4945325;28;20050;-79
2023/07/29 04:59:34;;;;;;;5.35;1.30;;;;;;;24.35;41.35;101013.38;4948205;28;20055;-76
2023/07/29 05:02:04;;;;;;;3.47;1.33;;;;;;;24.24;41.31;101011.00;4948443;28;20039;-77
2023/07/29 05:04:33;;;;;;;4.03;1.23;;;;;;;24.16;41.29;101021.72;4945005;28;20561;-78
2023/07/29 05:07:02;;;;;;;5.05;1.58;;;;;;;24.04;41.75;101017.59;4943020;28;20441;-77
2023/07/29 05:09:31;;;;;;;4.68;1.85;;;;;;;23.96;41.98;101018.66;4950413;28;20051;-78
2023/07/29 05:12:00;;;;;;;3.55;1.40;;;;;;;23.84;42.43;101014.50;4950544;28;20048;-77
2023/07/29 05:14:28;;;;;;;5.28;1.50;;;;;;;23.72;42.17;101020.91;4950168;28;20569;-78
2023/07/29 05:16:56;;;;;;;2.20;1.40;;;;;;;23.69;42.30;101017.47;4947620;28;20058;-77
2023/07/29 05:19:27;;;;;;;3.30;1.52;;;;;;;23.65;42.13;101015.78;4944742;28;20098;-78
2023/07/29 05:21:56;;;;;;;3.70;1.38;;;;;;;23.55;42.32;101002.75;4939703;28;20603;-76
2023/07/29 05:24:24;;;;;;;2.67;1.50;;;;;;;23.57;43.42;101016.81;4942228;28;20055;-77
2023/07/29 05:26:53;;;;;;;2.30;1.30;;;;;;;23.51;43.33;101022.22;4943399;28;20052;-77
2023/07/29 05:29:21;;;;;;;2.67;1.40;;;;;;;23.41;42.83;101005.69;4939629;28;20055;-78
2023/07/29 05:31:53;;;;;;;3.53;1.55;;;;;;;23.39;43.04;101018.03;4945489;28;20073;-78
2023/07/29 05:34:22;;;;;;;4.28;1.42;;;;;;;23.38;42.81;101010.13;4947518;28;20667;-78
2023/07/29 05:36:52;;;;;;;5.32;1.55;;;;;;;23.33;43.12;101019.94;4946422;28;20051;-79
2023/07/29 05:39:21;;;;;;;2.28;1.17;;;;;;;23.26;42.97;101021.81;4950594;28;20046;-79
2023/07/29 05:41:49;;;;;;;3.78;1.70;;;;;;;23.23;43.37;101020.97;4945319;28;20060;-77
2023/07/29 05:44:18;;;;;;;4.75;1.52;;;;;;;23.14;43.76;101009.72;4942557;28;20494;-76
2023/07/29 05:46:47;;;;;;;3.05;1.20;;;;;;;23.12;44.00;101014.16;4946548;28;20172;-78
2023/07/29 05:49:15;;;;;;;2.42;1.38;;;;;;;23.06;44.29;101019.53;4939855;28;20138;-79
2023/07/29 05:51:47;;;;;;;3.60;1.60;;;;;;;23.01;43.73;101021.38;4945265;28;20118;-77
2023/07/29 05:54:19;;;;;;;3.47;1.55;;;;;;;22.94;44.08;101019.72;4946358;28;20115;-76
2023/07/29 05:56:47;;;;;;;;;;;;;;;22.87;45.16;101028.66;4945802;28;20047;-77
2023/07/29 05:59:15;;;;;;;5.15;1.52;;;;;;;22.83;45.66;101030.44;4944842;28;19930;-78
2023/07/29 06:01:45;;;;;;;2.15;1.20;;;;;;;22.77;46.12;101036.72;4944728;28;20043;-78
2023/07/29 06:04:16;;;;;;;3.22;1.27;;;;;;;22.72;44.87;101046.47;4951734;28;20047;-77
2023/07/29 06:06:44;;;;;;;5.88;1.77;;;;;;;22.71;44.63;101041.22;4945261;28;20058;-78
2023/07/29 06:09:13;;;;;;;2.67;1.33;;;;;;;22.66;44.57;101045.72;4943181;28;20508;-77
2023/07/29 06:11:43;;;;;;;3.25;1.25;;;;;;;22.60;44.71;101051.94;4945374;28;20135;-78
2023/07/29 06:14:11;;;;;;;2.95;1.42;;;;;;;22.54;44.91;101052.00;4941394;28;20557;-79
2023/07/29 06:16:40;;;;;;;3.25;1.27;;;;;;;22.46;45.20;101053.91;4940797;28;20043;-80
2023/07/29 06:19:09;;;;;;;2.60;1.50;;;;;;;22.36;45.34;101058.47;4945862;28;20604;-78
2023/07/29 06:21:38;;;;;;;4.63;1.42;;;;;;;22.25;46.49;101057.75;4941856;28;20130;-77
2023/07/29 06:24:07;;;;;;;2.78;1.20;;;;;;;22.13;46.69;101069.28;4939941;28;20047;-78
2023/07/29 06:26:37;;;;;;;3.25;1.30;;;;;;;22.06;46.30;101072.88;4951802;28;20043;-78
2023/07/29 06:29:07;;;;;;;5.13;1.55;;;;;;;21.99;46.35;101069.47;4943611;28;20051;-78
2023/07/29 06:31:35;;;;;;;3.63;1.38;;;;;;;21.89;47.77;101071.31;4950324;28;20767;-76
2023/07/29 06:34:04;;;;;;;4.75;1.70;;;;;;;21.74;47.99;101076.78;4945408;28;20549;-77
2023/07/29 06:36:32;;;;;;;4.40;1.38;;;;;;;21.59;48.17;101071.69;4943721;28;20040;-77
2023/07/29 06:39:03;;;;;;;2.28;1.30;;;;;;;21.48;49.17;101070.03;4948424;28;20047;-76
2023/07/29 06:41:32;;;;;;;2.85;1.50;;;;;;;21.39;48.81;101075.34;4952253;28;20047;-77
2023/07/29 06:44:00;;;;;;;5.50;1.60;;;;;;;21.26;48.88;101076.41;4948703;28;20662;-77
2023/07/29 06:46:30;;;;;;;3.28;1.38;;;;;;;21.19;49.00;101072.94;4951265;28;20536;-79
2023/07/29 06:48:59;;;;;;;2.40;1.23;;;;;;;21.17;48.89;101077.34;4950826;28;20059;-78
2023/07/29 06:51:29;;;;;;;2.10;1.00;;;;;;;21.12;49.42;101080.03;4951173;28;20047;-78
2023/07/29 06:53:57;;;;;;;2.92;1.20;;;;;;;20.95;50.22;101075.78;4949298;28;20518;-78
2023/07/29 06:56:26;;;;;;;3.08;1.05;;;;;;;20.82;49.94;101083.78;4955338;28;20047;-78
2023/07/29 06:58:54;;;;;;;2.28;1.00;;;;;;;20.83;50.19;101087.28;4953055;28;20118;-78
2023/07/29 07:01:28;;;;;;;2.00;1.13;;;;;;;20.80;50.77;101084.66;4948695;28;20046;-78
2023/07/29 07:03:58;;;;;;;3.03;1.25;;;;;;;20.77;50.56;101082.06;4946012;28;20079;-78
2023/07/29 07:06:27;;;;;;;1.63;1.00;;;;;;;20.70;51.33;101081.22;4950066;28;20051;-79
2023/07/29 07:08:55;;;;;;;4.25;1.15;;;;;;;20.63;51.20;101087.41;4948423;28;20056;-77
2023/07/29 07:11:24;;;;;;;4.25;1.30;;;;;;;20.56;52.12;101077.78;4943966;28;20666;-76
2023/07/29 07:13:52;;;;;;;3.22;1.17;;;;;;;20.55;51.97;101087.44;4938708;28;20070;-77
2023/07/29 07:16:21;;;;;;;2.83;1.15;;;;;;;20.54;52.27;101084.81;4949095;28;20047;-78
2023/07/29 07:18:50;;;;;;;2.90;1.00;;;;;;;20.50;51.97;101092.72;4946363;28;20052;-78
2023/07/29 07:21:20;;;;;;;2.53;1.02;;;;;;;20.46;51.82;101098.00;4945016;28;20121;-79
2023/07/29 07:23:50;;;;;;;1.83;1.25;;;;;;;20.44;52.09;101091.88;4948532;28;20047;-78
2023/07/29 07:26:19;;;;;;;1.52;1.08;;;;;;;20.40;52.15;101098.03;4949427;28;20517;-78
2023/07/29 07:28:48;;;;;;;1.92;1.17;;;;;;;20.35;52.77;101098.06;4948182;28;20257;-78
2023/07/29 07:31:16;;;;;;;1.77;0.90;;;;;;;20.30;52.67;101110.34;4950442;28;20505;-79
2023/07/29 07:33:45;;;;;;;1.77;1.17;;;;;;;20.27;52.52;101108.63;4948794;28;20481;-78
2023/07/29 07:36:13;;;;;;;1.63;1.38;;;;;;;20.13;53.08;101093.78;4945535;28;20074;-77
2023/07/29 07:38:46;;;;;;;4.57;1.20;;;;;;;20.10;52.95;101105.19;4950843;28;20043;-77
2023/07/29 07:41:15;;;;;;;2.67;0.95;;;;;;;20.08;52.99;101115.69;4948650;28;20510;-78
2023/07/29 07:43:43;;;;;;;4.00;1.27;;;;;;;20.02;53.90;101114.84;4946975;28;20047;-76
2023/07/29 07:46:12;;;;;;;3.25;1.52;;;;;;;19.95;53.75;101116.63;4945751;28;20055;-77
2023/07/29 07:48:41;;;;;;;2.67;1.25;;;;;;;19.86;53.60;101120.16;4951327;28;20529;-77
2023/07/29 07:51:13;;;;;;;1.13;0.73;;;;;;;19.82;53.39;101121.03;4948689;28;20555;-76
2023/07/29 07:53:43;;;;;;;4.25;1.35;;;;;;;19.80;53.49;101121.94;4948421;28;20044;-78
2023/07/29 07:56:12;;;;;;;2.50;0.98;;;;;;;19.78;53.56;101124.53;4943408;28;20062;-77
2023/07/29 07:58:40;;;;;;;2.53;1.08;;;;;;;19.74;53.52;101117.56;4949585;28;20120;-76
2023/07/29 08:01:10;;;;;;;2.75;1.10;;;;;;;19.68;53.73;101122.81;4949525;28;20443;-77
2023/07/29 08:03:39;;;;;;;2.40;1.10;;;;;;;19.64;53.55;101127.16;4948403;28;20131;-77
2023/07/29 08:06:07;;;;;;;1.75;0.90;;;;;;;19.63;53.74;101130.69;4948718;28;20054;-76
2023/07/29 08:08:36;;;;;;;1.92;0.80;;;;;;;19.58;53.96;101124.53;4946962;28;20103;-78
2023/07/29 08:11:08;;;;;;;2.83;0.98;;;;;;;19.56;53.92;101125.44;4947976;28;20054;-78
2023/07/29 08:13:37;;;;;;;1.85;1.42;;;;;;;19.47;53.79;101128.97;4949365;28;20050;-77
2023/07/29 08:16:05;;;;;;;2.63;1.10;;;;;;;19.43;54.54;101135.97;4947344;28;20055;-77
2023/07/29 08:18:34;;;;;;;1.35;0.90;;;;;;;19.36;54.54;101136.84;4943139;28;20058;-77
2023/07/29 08:21:04;;;;;;;1.55;0.90;;;;;;;19.30;54.28;101131.59;4947022;28;20051;-75
2023/07/29 08:23:36;;;;;;;2.85;0.80;;;;;;;19.28;54.19;101135.97;4942285;28;20047;-77
2023/07/29 08:26:07;;;;;;;1.08;0.77;;;;;;;19.26;53.65;101150.81;4944160;28;20058;-77
2023/07/29 08:28:37;;;;;;;1.65;0.90;;;;;;;19.25;53.51;101143.84;4948079;28;20056;-77
2023/07/29 08:31:06;;;;;;;1.73;1.05;;;;;;;19.24;53.53;101144.69;4947895;28;20051;-79
2023/07/29 08:33:37;;;;;;;2.22;1.10;;;;;;;19.24;53.45;101144.69;4945427;28;20154;-76
2023/07/29 08:36:06;;;;;;;1.75;0.90;;;;;;;19.24;53.47;101153.47;4950564;28;20063;-77
2023/07/29 08:38:35;;;;;;;2.80;1.20;;;;;;;19.23;53.08;101153.44;4949424;28;20066;-78
2023/07/29 08:41:16;;;;;;;2.17;1.10;;;;;;;19.22;53.50;101156.97;4948837;28;20115;-76
2023/07/29 08:43:52;;;;;;;2.83;1.00;;;;;;;19.22;53.09;101160.47;4946850;28;20110;-78
2023/07/29 08:46:21;;;;;;;0.98;0.80;;;;;;;19.21;53.44;101160.44;4949488;28;20131;-78
2023/07/29 08:48:52;;;;;;;1.20;1.08;;;;;;;19.18;53.55;101157.84;4949490;28;20051;-78
2023/07/29 08:51:23;;;;;;;1.90;0.95;;;;;;;19.16;53.28;101159.56;4944428;28;20078;-77
2023/07/29 08:53:52;;;;;;;2.40;0.90;;;;;;;19.13;53.96;101159.59;4947596;28;20087;-78
2023/07/29 08:56:22;;;;;;;1.40;0.70;;;;;;;19.10;54.07;101156.94;4951078;28;20052;-78
2023/07/29 08:58:51;;;;;;;2.58;1.00;;;;;;;19.07;53.98;101159.56;4947781;28;20071;-78
2023/07/29 09:01:20;;;;;;;2.15;0.90;;;;;;;19.02;54.50;101167.44;4950527;28;20047;-78
2023/07/29 09:03:48;;;;;;;1.63;0.90;;;;;;;18.96;53.95;101160.41;4944199;28;20625;-78
2023/07/29 09:06:19;;;;;;;1.77;1.08;;;;;;;18.90;54.58;101162.16;4948933;28;20054;-77
2023/07/29 09:08:48;;;;;;;0.80;0.70;;;;;;;18.83;55.32;101169.16;4947346;28;20047;-78
2023/07/29 09:11:20;;;;;;;2.05;0.90;;;;;;;18.79;55.33;101170.03;4945845;28;20123;-77
2023/07/29 09:13:50;;;;;;;1.92;0.80;;;;;;;18.74;54.95;101169.97;4944170;28;20050;-77
2023/07/29 09:16:19;;;;;;;1.20;1.00;;;;;;;18.70;54.89;101170.81;4946224;28;20051;-78
2023/07/29 09:18:50;;;;;;;3.72;1.05;;;;;;;18.67;54.98;101170.84;4947827;28;20054;-77
2023/07/29 09:21:24;;;;;;;1.23;0.97;;;;;;;18.67;54.83;101169.94;4944821;28;20573;-77
2023/07/29 09:23:53;;;;;;;1.70;1.00;;;;;;;18.65;54.36;101171.69;4948277;28;20074;-76
2023/07/29 09:26:25;;;;;;;2.17;1.00;;;;;;;18.63;55.38;101169.06;4948513;28;20066;-77
2023/07/29 09:28:57;;;;;;;1.52;0.98;;;;;;;18.62;55.50;101173.44;4944976;28;20047;-78
2023/07/29 09:31:28;;;;;;;2.47;1.10;;;;;;;18.58;56.23;101163.81;4948097;28;20047;-77
2023/07/29 09:33:59;;;;;;;3.42;1.13;;;;;;;18.54;56.64;101172.53;4946314;28;20051;-77
2023/07/29 09:36:28;;;;;;;0.90;0.80;;;;;;;18.52;56.25;101182.13;4948912;28;20053;-78
2023/07/29 09:38:57;;;;;;;4.20;1.00;;;;;;;18.52;56.39;101176.88;4947608;28;20063;-78
2023/07/29 09:41:27;;;;;;;1.63;0.88;;;;;;;18.50;56.16;101183.00;4945467;28;20077;-78
2023/07/29 09:44:01;;;;;;;1.40;1.10;;;;;;;18.48;56.01;101182.97;4947078;28;20066;-79
2023/07/29 09:46:35;;;;;;;3.03;1.17;;;;;;;18.43;55.93;101182.97;4939886;28;20154;-78
2023/07/29 09:49:05;;;;;;;4.60;1.20;;;;;;;18.39;56.40;101188.19;4945175;28;20078;-78
2023/07/29 09:51:39;;;;;;;4.18;1.15;;;;;;;18.36;55.75;101185.56;4939474;28;20559;-78
2023/07/29 09:54:07;;;;;;;5.53;0.98;;;;;;;18.30;56.24;101185.53;4946752;28;20138;-77
2023/07/29 09:56:42;;;;;;;4.28;1.10;;;;;;;18.26;55.98;101183.78;4942935;28;20401;-77
2023/07/29 09:59:12;;;;;;;3.15;0.98;;;;;;;18.21;56.12;101183.75;4949106;28;20095;-77
2023/07/29 10:01:48;;;;;;;1.75;0.98;;;;;;;18.15;56.86;101186.34;4947233;28;20119;-77
2023/07/29 10:04:17;;;;;;;2.05;0.70;;;;;;;18.11;57.06;101187.19;4955735;28;20605;-77
2023/07/29 10:06:47;;;;;;;2.78;0.82;;;;;;;18.04;57.27;101194.13;4946138;28;20059;-77
2023/07/29 10:09:17;;;;;;;2.92;1.00;;;;;;;17.98;57.47;101189.75;4948790;28;20409;-78
2023/07/29 10:11:53;;;;;;;1.27;1.10;;;;;;;17.91;57.71;101187.97;4948789;28;20127;-76
2023/07/29 10:14:23;;;;;;;3.35;1.10;;;;;;;17.89;57.66;101178.31;4947529;28;20082;-78
2023/07/29 10:16:53;;;;;;;0.85;0.75;;;;;;;17.84;57.56;101182.66;4947725;28;20043;-77
2023/07/29 10:19:23;;;;;;;2.55;1.15;;;;;;;17.79;58.00;101188.69;4952278;28;20051;-78
2023/07/29 10:21:51;;;;;;;2.83;0.88;;;;;;;17.74;58.80;101189.53;4955198;28;20651;-78
2023/07/29 10:24:28;;;;;;;2.65;1.23;;;;;;;17.69;59.13;101186.91;4952699;28;20055;-77
2023/07/29 10:26:59;;;;;;;2.17;1.40;;;;;;;17.68;59.99;101190.34;4952655;28;20481;-78
2023/07/29 10:29:33;;;;;;;2.85;1.00;;;;;;;17.66;60.57;101186.88;4947868;28;20089;-78
2023/07/29 10:32:04;;;;;;;3.10;1.33;;;;;;;17.67;60.95;101191.25;4949860;28;20119;-78
2023/07/29 10:34:35;;;;;;;5.40;1.13;;;;;;;17.67;61.08;101186.00;4955043;28;20078;-77
2023/07/29 10:37:04;;;;;;;2.28;1.10;;;;;;;17.67;60.91;101188.63;4951102;28;20055;-77
2023/07/29 10:39:40;;;;;;;2.47;0.90;;;;;;;17.66;61.34;101189.50;4948623;28;20458;-78
2023/07/29 10:42:09;;;;;;;3.30;1.23;;;;;;;17.61;61.40;101191.19;4950603;28;20138;-78
2023/07/29 10:44:55;;;;;;;2.78;0.80;;;;;;;17.59;62.76;101196.44;4949022;28;20533;-77
2023/07/29 10:47:26;;;;;;;3.25;0.73;;;;;;;17.50;63.55;101195.44;4948299;28;20486;-77
2023/07/29 10:49:56;;;;;;;1.40;1.08;;;;;;;17.43;62.71;101196.28;4947439;28;20533;-78
2023/07/29 10:52:42;;;;;;;2.83;1.05;;;;;;;17.40;63.19;101199.75;4947673;28;20043;-78
2023/07/29 10:55:27;;;;;;;5.03;1.40;;;;;;;17.38;62.57;101207.59;4947621;28;20043;-78
2023/07/29 10:58:07;;;;;;;2.05;1.15;;;;;;;17.36;62.99;101208.41;4947525;28;20162;-78
2023/07/29 11:00:37;;;;;;;1.95;1.25;;;;;;;17.26;64.94;101204.84;4950214;28;20047;-78
2023/07/29 11:03:08;;;;;;;3.13;1.35;;;;;;;17.12;68.09;101214.31;4949675;28;20065;-76
2023/07/29 11:05:53;;;;;;;1.40;0.90;;;;;;;16.93;69.18;101211.50;4948686;28;20055;-78
2023/07/29 11:08:29;;;;;;;2.08;1.13;;;;;;;16.76;70.34;101219.09;4946136;28;20633;-77
2023/07/29 11:11:06;;;;;;;5.20;1.45;;;;;;;16.63;70.75;101218.94;4936476;28;20526;-78
2023/07/29 11:13:38;;;;;;;1.75;0.82;;;;;;;16.61;71.58;101220.69;4951667;28;20039;-77
2023/07/29 11:16:08;;;;;;;;;;;;;;;16.60;70.60;101221.53;4946262;28;20051;-78
2023/07/29 11:18:37;;;;;;;4.15;1.38;;;;;;;16.61;70.49;101220.69;4949512;28;20002;-78
2023/07/29 11:21:06;;;;;;;2.30;1.48;;;;;;;16.58;71.82;101231.09;4947346;28;20135;-77
2023/07/29 11:23:40;;;;;;;4.75;1.25;;;;;;;16.54;71.90;101225.84;4951072;28;20074;-78
2023/07/29 11:26:09;;;;;;;3.50;1.17;;;;;;;16.54;72.55;101228.44;4954186;28;20559;-78
2023/07/29 11:28:41;;;;;;;2.42;1.30;;;;;;;16.53;71.29;101225.81;4947894;28;20102;-77
2023/07/29 11:31:14;;;;;;;3.90;1.20;;;;;;;16.47;72.90;101230.94;4949702;28;20454;-77
2023/07/29 11:33:45;;;;;;;1.95;1.15;;;;;;;16.33;74.57;101225.53;4949257;28;20051;-77
2023/07/29 11:36:20;;;;;;;2.72;1.33;;;;;;;16.28;75.12;101232.44;4947603;28;20116;-77
2023/07/29 11:38:49;;;;;;;2.90;1.48;;;;;;;16.19;74.03;101219.25;4947414;28;20066;-78
2023/07/29 11:41:23;;;;;;;7.32;1.70;;;;;;;16.26;73.92;101239.38;4944602;28;20043;-77